Terminal Aerodrome Forecast
Issued by NWS Wichita, KS

Home | Current Version | Previous Version | Graphics & Text | Print | Product List | Glossary On
Versions: 1 2 3 4 5 6 7 8 9 10 11 12 13 14 15 16 17 18 19 20 21
000
FTUS43 KICT 191120
TAFICT
TAF
KICT 191120Z 1912/2012 16004KT P6SM FEW250
     FM192300 17012KT P6SM FEW250
     FM200300 17015KT P6SM FEW250
     FM200700 18014KT P6SM SCT250 WS020/19040KT
     FM201100 17014G20KT P6SM FEW015 SCT250=

USA.gov is the U.S. government's official web portal to all federal, state and local government web resources and services.